Time;durP1;ratioP1;P1;durP2;ratioP2;P2;SDS_P1;SDS_P2;PMS_P1;PMS_P2;Temp;Humidity;BMP_temperature;BMP_pressure;BME280_temperature;BME280_humidity;BME280_pressure;Samples;Min_cycle;Max_cycle;Signal;HPM_P1;HPM_P2
2021/07/23 00:01:41;;;;;;;;;;;19.20;1.00;;;;;;4989888;28;19917;-66
2021/07/23 00:04:06;;;;;;;;;;;19.20;1.00;;;;;;4991082;28;19910;-66
2021/07/23 00:06:32;;;;;;;;;;;19.10;1.00;;;;;;4990131;28;19914;-66
2021/07/23 00:08:57;;;;;;;;;;;19.00;1.00;;;;;;4990723;28;19963;-66
2021/07/23 00:11:23;;;;;;;;;;;19.00;1.00;;;;;;4991147;28;19918;-65
2021/07/23 00:13:48;;;;;;;;;;;19.00;1.00;;;;;;4993995;28;20005;-65
2021/07/23 00:16:14;;;;;;;;;;;18.90;1.00;;;;;;4994736;28;19914;-66
2021/07/23 00:18:39;;;;;;;;;;;18.90;1.00;;;;;;4994672;28;20413;-65
2021/07/23 00:21:05;;;;;;;;;;;18.80;1.00;;;;;;4994577;28;19913;-65
2021/07/23 00:23:30;;;;;;;;;;;18.80;1.00;;;;;;4994541;28;20145;-65
2021/07/23 00:25:56;;;;;;;;;;;18.80;1.00;;;;;;4994380;28;19957;-65
2021/07/23 00:28:22;;;;;;;;;;;18.70;1.00;;;;;;4994612;28;19932;-66
2021/07/23 00:30:47;;;;;;;;;;;18.70;1.00;;;;;;4994288;28;19924;-65
2021/07/23 00:33:12;;;;;;;;;;;18.70;1.00;;;;;;4994552;28;19914;-65
2021/07/23 00:35:38;;;;;;;;;;;18.60;1.00;;;;;;4994141;28;19909;-66
2021/07/23 00:38:05;;;;;;;;;;;18.60;1.00;;;;;;4993793;28;19910;-67
2021/07/23 00:40:32;;;;;;;;;;;18.60;1.00;;;;;;4994119;28;19910;-66
2021/07/23 00:42:58;;;;;;;;;;;18.50;1.00;;;;;;4994344;28;19953;-66
2021/07/23 00:45:23;;;;;;;;;;;18.50;1.00;;;;;;4993753;28;20386;-67
2021/07/23 00:47:52;;;;;;;;;;;18.40;1.00;;;;;;4994278;28;19916;-66
2021/07/23 00:50:17;;;;;;;;;;;18.40;1.00;;;;;;4993985;28;20017;-64
2021/07/23 00:52:43;;;;;;;;;;;18.40;1.00;;;;;;4992606;28;20008;-66
2021/07/23 00:55:09;;;;;;;;;;;18.40;1.00;;;;;;4993717;28;19940;-64
2021/07/23 00:57:36;;;;;;;;;;;18.30;1.00;;;;;;4993321;28;19918;-64
2021/07/23 01:00:03;;;;;;;;;;;18.30;1.00;;;;;;4993433;28;19921;-66
2021/07/23 01:02:29;;;;;;;;;;;18.30;1.00;;;;;;4993907;28;19937;-68
2021/07/23 01:04:54;;;;;;;;;;;18.30;1.00;;;;;;4993764;28;19909;-67
2021/07/23 01:07:20;;;;;;;;;;;18.30;1.00;;;;;;4993205;28;19955;-64
2021/07/23 01:09:46;;;;;;;;;;;18.30;1.00;;;;;;4993441;28;19949;-64
2021/07/23 01:12:12;;;;;;;;;;;18.30;1.00;;;;;;4993360;28;19914;-64
2021/07/23 01:14:38;;;;;;;;;;;18.30;1.00;;;;;;4993047;28;19917;-67
2021/07/23 01:17:03;;;;;;;;;;;18.30;1.00;;;;;;4993468;28;19914;-67
2021/07/23 01:19:34;;;;;;;;;;;18.30;1.00;;;;;;4992716;28;20438;-67
2021/07/23 01:22:01;;;;;;;;;;;18.30;1.00;;;;;;4992938;28;20012;-67
2021/07/23 01:24:27;;;;;;;;;;;18.30;1.00;;;;;;4991930;28;19944;-64
2021/07/23 01:26:53;;;;;;;;;;;18.30;1.00;;;;;;4991906;28;19914;-64
2021/07/23 01:29:18;;;;;;;;;;;18.20;1.00;;;;;;4991003;28;20555;-67
2021/07/23 01:31:44;;;;;;;;;;;18.20;1.00;;;;;;4992884;28;19957;-65
2021/07/23 01:34:10;;;;;;;;;;;18.20;1.00;;;;;;4991148;28;20375;-67
2021/07/23 01:36:35;;;;;;;;;;;18.20;1.00;;;;;;4992550;28;20001;-67
2021/07/23 01:39:01;;;;;;;;;;;18.10;1.00;;;;;;4992246;28;19910;-67
2021/07/23 01:41:27;;;;;;;;;;;18.10;1.00;;;;;;4992648;28;19976;-67
2021/07/23 01:43:53;;;;;;;;;;;18.10;1.00;;;;;;4992271;28;19941;-67
2021/07/23 01:46:18;;;;;;;;;;;18.00;1.00;;;;;;4991257;28;19909;-67
2021/07/23 01:48:44;;;;;;;;;;;18.00;1.00;;;;;;4992022;28;19960;-67
2021/07/23 01:51:09;;;;;;;;;;;18.00;1.00;;;;;;4992646;28;19914;-66
2021/07/23 01:53:35;;;;;;;;;;;18.00;1.00;;;;;;4992463;28;19910;-64
2021/07/23 01:56:00;;;;;;;;;;;17.90;1.00;;;;;;4992356;28;20363;-67
2021/07/23 01:58:30;;;;;;;;;;;17.90;1.00;;;;;;4991298;28;20080;-67
2021/07/23 02:00:57;;;;;;;;;;;17.90;1.00;;;;;;4992463;28;19913;-66
2021/07/23 02:03:23;;;;;;;;;;;17.90;1.00;;;;;;4992293;28;19986;-68
2021/07/23 02:05:49;;;;;;;;;;;17.80;1.00;;;;;;4990757;28;20037;-67
2021/07/23 02:08:14;;;;;;;;;;;17.80;1.00;;;;;;4991699;28;20385;-68
2021/07/23 02:10:40;;;;;;;;;;;17.80;1.00;;;;;;4990795;28;20008;-67
2021/07/23 02:13:05;;;;;;;;;;;17.70;1.00;;;;;;4992278;28;19920;-67
2021/07/23 02:15:31;;;;;;;;;;;17.70;1.00;;;;;;4991657;28;19916;-67
2021/07/23 02:17:56;;;;;;;;;;;17.70;1.00;;;;;;4991909;28;20289;-67
2021/07/23 02:20:22;;;;;;;;;;;17.70;1.00;;;;;;4991893;28;19920;-67
2021/07/23 02:22:47;;;;;;;;;;;17.70;1.00;;;;;;4991979;28;20270;-66
2021/07/23 02:25:13;;;;;;;;;;;17.60;1.00;;;;;;4991812;28;19928;-66
2021/07/23 02:27:38;;;;;;;;;;;17.60;1.00;;;;;;4991784;28;19910;-66
2021/07/23 02:30:04;;;;;;;;;;;17.60;1.00;;;;;;4991477;28;19917;-66
2021/07/23 02:32:29;;;;;;;;;;;17.60;1.00;;;;;;4991719;28;19921;-65
2021/07/23 02:34:55;;;;;;;;;;;17.50;1.00;;;;;;4991368;28;19918;-66
2021/07/23 02:37:21;;;;;;;;;;;17.50;1.00;;;;;;4991797;28;20421;-66
2021/07/23 02:39:46;;;;;;;;;;;17.50;1.00;;;;;;4991748;28;19925;-66
2021/07/23 02:42:11;;;;;;;;;;;17.40;1.00;;;;;;4992022;28;19928;-66
2021/07/23 02:44:37;;;;;;;;;;;17.40;1.00;;;;;;4991068;28;19917;-66
2021/07/23 02:47:03;;;;;;;;;;;17.40;1.00;;;;;;4991734;28;19968;-66
2021/07/23 02:49:28;;;;;;;;;;;17.30;1.00;;;;;;4991641;28;20000;-66
2021/07/23 02:51:53;;;;;;;;;;;17.30;1.00;;;;;;4991368;28;20373;-66
2021/07/23 02:54:19;;;;;;;;;;;17.30;1.00;;;;;;4990361;28;19909;-66
2021/07/23 02:56:45;;;;;;;;;;;17.30;1.00;;;;;;4991435;28;19925;-67
2021/07/23 02:59:10;;;;;;;;;;;17.30;1.00;;;;;;4991097;28;19914;-66
2021/07/23 03:01:37;;;;;;;;;;;17.30;1.00;;;;;;4991610;28;19940;-66
2021/07/23 03:04:03;;;;;;;;;;;17.30;1.00;;;;;;4991290;28;19961;-66
2021/07/23 03:06:28;;;;;;;;;;;17.20;1.00;;;;;;4991420;28;19945;-66
2021/07/23 03:08:54;;;;;;;;;;;17.10;1.00;;;;;;4990867;28;19951;-66
2021/07/23 03:11:19;;;;;;;;;;;17.10;1.00;;;;;;4990004;28;20339;-66
2021/07/23 03:13:45;;;;;;;;;;;17.00;1.00;;;;;;4989693;28;19929;-66
2021/07/23 03:16:16;;;;;;;;;;;17.00;1.00;;;;;;4991209;28;20367;-66
2021/07/23 03:18:42;;;;;;;;;;;16.90;1.00;;;;;;4991017;28;20077;-66
2021/07/23 03:21:08;;;;;;;;;;;16.90;1.00;;;;;;4991530;28;20435;-66
2021/07/23 03:23:33;;;;;;;;;;;16.90;1.00;;;;;;4991518;28;19910;-66
2021/07/23 03:25:59;;;;;;;;;;;16.90;1.00;;;;;;4991210;28;20024;-66
2021/07/23 03:28:24;;;;;;;;;;;16.80;1.00;;;;;;4990929;28;19961;-66
2021/07/23 03:30:50;;;;;;;;;;;16.80;1.00;;;;;;4991222;28;19913;-66
2021/07/23 03:33:16;;;;;;;;;;;16.80;1.00;;;;;;4989697;28;19959;-66
2021/07/23 03:35:41;;;;;;;;;;;16.80;1.00;;;;;;4989650;28;19987;-66
2021/07/23 03:38:07;;;;;;;;;;;16.70;1.00;;;;;;4990850;28;19917;-65
2021/07/23 03:40:32;;;;;;;;;;;16.70;1.00;;;;;;4991408;28;20449;-65
2021/07/23 03:42:58;;;;;;;;;;;16.70;1.00;;;;;;4991142;28;19913;-66
2021/07/23 03:45:23;;;;;;;;;;;16.70;1.00;;;;;;4990968;28;19910;-66
2021/07/23 03:47:48;;;;;;;;;;;16.70;1.00;;;;;;4992976;28;19961;-66
2021/07/23 03:50:14;;;;;;;;;;;16.70;1.00;;;;;;4995413;28;20367;-65
2021/07/23 03:52:40;;;;;;;;;;;16.70;1.00;;;;;;4995225;28;20406;-66
2021/07/23 03:55:05;;;;;;;;;;;16.70;1.00;;;;;;4994686;28;20004;-65
2021/07/23 03:57:31;;;;;;;;;;;16.70;1.00;;;;;;4994486;28;19978;-66
2021/07/23 03:59:56;;;;;;;;;;;16.70;1.00;;;;;;4994083;28;19917;-66
2021/07/23 04:02:22;;;;;;;;;;;16.70;1.00;;;;;;4994885;28;19917;-66
2021/07/23 04:04:47;;;;;;;;;;;16.70;1.00;;;;;;4994389;28;19913;-66
2021/07/23 04:07:13;;;;;;;;;;;16.70;1.00;;;;;;4994720;28;20310;-66
2021/07/23 04:09:38;;;;;;;;;;;16.70;1.00;;;;;;4992747;28;19909;-67
2021/07/23 04:12:04;;;;;;;;;;;16.80;1.00;;;;;;4993039;28;19925;-64
2021/07/23 04:14:29;;;;;;;;;;;16.80;1.00;;;;;;4993956;28;19913;-64
2021/07/23 04:16:55;;;;;;;;;;;16.90;1.00;;;;;;4994025;28;19960;-65
2021/07/23 04:19:20;;;;;;;;;;;16.90;1.00;;;;;;4992604;28;19921;-65
2021/07/23 04:21:46;;;;;;;;;;;17.00;1.00;;;;;;4994162;28;19910;-65
2021/07/23 04:24:11;;;;;;;;;;;17.00;1.00;;;;;;4994126;28;19917;-64
2021/07/23 04:26:37;;;;;;;;;;;17.00;1.00;;;;;;5009385;23;19967;-65
2021/07/23 04:29:02;;;;;;;;;;;17.10;1.00;;;;;;4993052;28;19910;-64
2021/07/23 04:31:28;;;;;;;;;;;17.10;1.00;;;;;;4994152;28;20306;-66
2021/07/23 04:33:57;;;;;;;;;;;17.30;1.00;;;;;;4994485;28;20000;-66
2021/07/23 04:36:23;;;;;;;;;;;17.30;1.00;;;;;;4994213;28;19910;-63
2021/07/23 04:38:48;;;;;;;;;;;17.50;1.00;;;;;;4993414;28;19925;-64
2021/07/23 04:41:13;;;;;;;;;;;17.80;99.90;;;;;;4993923;28;19914;-65
2021/07/23 04:43:39;;;;;;;;;;;18.10;99.90;;;;;;4992245;28;19925;-65
2021/07/23 04:46:06;;;;;;;;;;;18.50;1.00;;;;;;4993487;28;19957;-65
2021/07/23 04:48:32;;;;;;;;;;;18.90;99.90;;;;;;4992711;28;20016;-65
2021/07/23 04:51:00;;;;;;;;;;;19.20;1.00;;;;;;4993847;28;19989;-66
2021/07/23 04:53:25;;;;;;;;;;;19.60;99.90;;;;;;4993846;28;20287;-66
2021/07/23 04:55:53;;;;;;;;;;;19.90;1.00;;;;;;4993802;28;20013;-65
2021/07/23 04:58:19;;;;;;;;;;;20.30;99.90;;;;;;4994188;28;20004;-65
2021/07/23 05:00:45;;;;;;;;;;;20.70;1.00;;;;;;4994143;28;20017;-66
2021/07/23 05:03:11;;;;;;;;;;;21.10;99.90;;;;;;4992144;28;19921;-66
2021/07/23 05:05:39;;;;;;;;;;;21.60;99.90;;;;;;4993601;28;19922;-65
2021/07/23 05:08:05;;;;;;;;;;;22.00;1.00;;;;;;4993543;28;19994;-65
2021/07/23 05:10:30;;;;;;;;;;;22.40;1.00;;;;;;4993409;28;19971;-66
2021/07/23 05:12:57;;;;;;;;;;;22.90;1.00;;;;;;4993788;28;20359;-66
2021/07/23 05:15:22;;;;;;;;;;;23.20;1.00;;;;;;4992904;28;19974;-65
2021/07/23 05:17:48;;;;;;;;;;;23.70;1.00;;;;;;4992843;28;19910;-65
2021/07/23 05:20:13;;;;;;;;;;;24.10;1.00;;;;;;4993534;28;19913;-66
2021/07/23 05:22:39;;;;;;;;;;;24.50;99.90;;;;;;4993459;28;19921;-66
2021/07/23 05:25:07;;;;;;;;;;;24.90;99.90;;;;;;4993716;28;20287;-66
2021/07/23 05:27:33;;;;;;;;;;;25.30;99.90;;;;;;4992523;28;19929;-66
2021/07/23 05:29:59;;;;;;;;;;;25.80;99.90;;;;;;4993658;28;19936;-66
2021/07/23 05:32:25;;;;;;;;;;;26.10;99.90;;;;;;4993163;28;19914;-66
2021/07/23 05:34:50;;;;;;;;;;;26.40;99.90;;;;;;4993619;28;19921;-66
2021/07/23 05:37:16;;;;;;;;;;;26.80;99.90;;;;;;4993239;28;20015;-66
2021/07/23 05:39:42;;;;;;;;;;;27.20;99.90;;;;;;4992917;28;20286;-66
2021/07/23 05:42:08;;;;;;;;;;;27.50;99.90;;;;;;4992888;28;19956;-66
2021/07/23 05:44:33;;;;;;;;;;;27.70;99.90;;;;;;4992479;28;19934;-64
2021/07/23 05:46:59;;;;;;;;;;;28.00;99.90;;;;;;4992984;28;20358;-66
2021/07/23 05:49:25;;;;;;;;;;;28.30;99.90;;;;;;4992184;28;19914;-66
2021/07/23 05:51:51;;;;;;;;;;;28.80;99.90;;;;;;4992787;28;19920;-66
2021/07/23 05:54:16;;;;;;;;;;;29.30;99.90;;;;;;4992463;28;20004;-66
2021/07/23 05:56:42;;;;;;;;;;;30.00;99.90;;;;;;4992594;28;19917;-66
2021/07/23 05:59:07;;;;;;;;;;;30.30;99.90;;;;;;4991135;28;19910;-66
2021/07/23 06:01:33;;;;;;;;;;;30.60;99.90;;;;;;4992280;28;20013;-66
2021/07/23 06:03:59;;;;;;;;;;;31.20;99.90;;;;;;4992401;28;19914;-66
2021/07/23 06:06:25;;;;;;;;;;;32.00;99.90;;;;;;4992414;28;19917;-65
2021/07/23 06:08:50;;;;;;;;;;;32.10;99.90;;;;;;4991516;28;19910;-65
2021/07/23 06:11:16;;;;;;;;;;;32.50;99.90;;;;;;4991591;28;20267;-65
2021/07/23 06:13:41;;;;;;;;;;;33.00;99.90;;;;;;4991444;28;19981;-65
2021/07/23 06:16:09;;;;;;;;;;;33.10;99.90;;;;;;4991943;28;19921;-65
2021/07/23 06:18:34;;;;;;;;;;;33.20;99.90;;;;;;4991506;28;20290;-65
2021/07/23 06:21:00;;;;;;;;;;;33.50;99.90;;;;;;4992524;28;19920;-66
2021/07/23 06:23:25;;;;;;;;;;;33.80;99.90;;;;;;4992522;28;20377;-65
2021/07/23 06:25:51;;;;;;;;;;;34.40;99.90;;;;;;4991555;28;19932;-65
2021/07/23 06:28:16;;;;;;;;;;;34.90;99.90;;;;;;4991150;28;19917;-65
2021/07/23 06:30:42;;;;;;;;;;;35.40;99.90;;;;;;4991231;28;19918;-65
2021/07/23 06:33:07;;;;;;;;;;;35.70;99.90;;;;;;4991954;28;19910;-65
2021/07/23 06:35:33;;;;;;;;;;;36.20;99.90;;;;;;4991604;28;19910;-66
2021/07/23 06:37:59;;;;;;;;;;;36.50;99.90;;;;;;4990892;28;19920;-66
2021/07/23 06:40:25;;;;;;;;;;;36.50;99.90;;;;;;4991578;28;19949;-66
2021/07/23 06:42:50;;;;;;;;;;;37.20;99.90;;;;;;4991922;28;19926;-66
2021/07/23 06:45:16;;;;;;;;;;;37.60;99.90;;;;;;4991030;28;20354;-65
2021/07/23 06:47:42;;;;;;;;;;;37.70;99.90;;;;;;4990774;28;19914;-65
2021/07/23 06:50:07;;;;;;;;;;;37.90;99.90;;;;;;4991083;28;19957;-66
2021/07/23 06:52:34;;;;;;;;;;;37.70;99.90;;;;;;4991261;28;20267;-65
2021/07/23 06:55:00;;;;;;;;;;;38.30;99.90;;;;;;4991136;28;19910;-65
2021/07/23 06:57:25;;;;;;;;;;;38.40;98.10;;;;;;4990581;28;19955;-66
2021/07/23 06:59:51;;;;;;;;;;;39.10;94.80;;;;;;4991066;28;20009;-66
2021/07/23 07:02:17;;;;;;;;;;;39.90;92.70;;;;;;4991030;28;19916;-66
2021/07/23 07:04:44;;;;;;;;;;;40.70;85.70;;;;;;4991151;28;19979;-66
2021/07/23 07:07:11;;;;;;;;;;;40.40;74.60;;;;;;4990973;28;19975;-66
2021/07/23 07:09:37;;;;;;;;;;;39.80;63.30;;;;;;4990882;28;20001;-65
2021/07/23 07:12:03;;;;;;;;;;;39.90;57.70;;;;;;4990671;28;20008;-66
2021/07/23 07:14:28;;;;;;;;;;;40.10;52.20;;;;;;4990542;28;19917;-66
2021/07/23 07:16:54;;;;;;;;;;;40.60;49.50;;;;;;4991167;28;19910;-66
2021/07/23 07:19:20;;;;;;;;;;;40.50;46.50;;;;;;4990352;28;19910;-66
2021/07/23 07:21:48;;;;;;;;;;;40.90;42.80;;;;;;4991321;28;20380;-66
2021/07/23 07:24:17;;;;;;;;;;;40.70;51.00;;;;;;4994789;28;19986;-66
2021/07/23 07:26:44;;;;;;;;;;;40.60;34.20;;;;;;4995030;28;20013;-65
2021/07/23 07:29:09;;;;;;;;;;;41.00;31.60;;;;;;4994126;28;19920;-66
2021/07/23 07:31:35;;;;;;;;;;;41.30;29.50;;;;;;4994882;28;19914;-65
2021/07/23 07:34:00;;;;;;;;;;;42.10;29.20;;;;;;4995286;28;20329;-66
2021/07/23 07:36:26;;;;;;;;;;;42.90;25.90;;;;;;4994685;28;19922;-66
2021/07/23 07:38:51;;;;;;;;;;;43.20;24.30;;;;;;4994615;28;19909;-66
2021/07/23 07:41:17;;;;;;;;;;;43.60;21.60;;;;;;4994904;28;20314;-66
2021/07/23 07:43:43;;;;;;;;;;;43.90;18.20;;;;;;4994548;28;20342;-66
2021/07/23 07:46:09;;;;;;;;;;;43.90;14.90;;;;;;4995208;28;19914;-67
2021/07/23 07:48:34;;;;;;;;;;;43.80;12.90;;;;;;4994492;28;20374;-67
2021/07/23 07:51:00;;;;;;;;;;;43.30;8.60;;;;;;4994469;28;20011;-67
2021/07/23 07:53:25;;;;;;;;;;;43.50;6.90;;;;;;4994815;28;19964;-65
2021/07/23 07:55:51;;;;;;;;;;;43.70;4.90;;;;;;4994587;28;19909;-66
2021/07/23 07:58:16;;;;;;;;;;;43.20;2.50;;;;;;4994435;28;19910;-66
2021/07/23 08:00:42;;;;;;;;;;;42.90;1.00;;;;;;4994295;28;19914;-65
2021/07/23 08:03:07;;;;;;;;;;;42.80;1.00;;;;;;4994940;28;19932;-66
2021/07/23 08:05:33;;;;;;;;;;;43.00;1.00;;;;;;4994445;28;19913;-65
2021/07/23 08:07:59;;;;;;;;;;;42.40;1.00;;;;;;4994236;28;19942;-66
2021/07/23 08:10:27;;;;;;;;;;;42.20;1.00;;;;;;4994379;28;19917;-65
2021/07/23 08:12:53;;;;;;;;;;;42.40;1.00;;;;;;4994634;28;20020;-65
2021/07/23 08:15:19;;;;;;;;;;;42.60;1.00;;;;;;4994049;28;20008;-65
2021/07/23 08:17:45;;;;;;;;;;;42.80;1.00;;;;;;4993925;28;19933;-66
2021/07/23 08:20:11;;;;;;;;;;;43.40;1.00;;;;;;4994241;28;20076;-66
2021/07/23 08:22:36;;;;;;;;;;;43.90;1.00;;;;;;4994141;28;19949;-66
2021/07/23 08:25:02;;;;;;;;;;;43.70;1.00;;;;;;4993618;28;19924;-67
2021/07/23 08:27:28;;;;;;;;;;;44.20;1.00;;;;;;4993820;28;19914;-66
2021/07/23 08:29:53;;;;;;;;;;;44.30;1.00;;;;;;4993736;28;20046;-66
2021/07/23 08:32:19;;;;;;;;;;;44.20;1.00;;;;;;4994164;28;20120;-66
2021/07/23 08:34:45;;;;;;;;;;;43.60;1.00;;;;;;4993493;28;20278;-66
2021/07/23 08:37:10;;;;;;;;;;;44.30;1.00;;;;;;4994117;28;19917;-66
2021/07/23 08:39:36;;;;;;;;;;;44.90;1.00;;;;;;4993269;28;19910;-66
2021/07/23 08:42:20;;;;;;;;;;;44.40;1.00;;;;;;4994098;28;19984;-65
2021/07/23 08:44:45;;;;;;;;;;;43.50;1.00;;;;;;4993281;28;20004;-66
2021/07/23 08:47:11;;;;;;;;;;;42.80;1.00;;;;;;4993734;28;20490;-66
2021/07/23 08:49:36;;;;;;;;;;;42.80;1.00;;;;;;4993509;28;19910;-66
2021/07/23 08:52:02;;;;;;;;;;;43.90;1.00;;;;;;4993718;28;20351;-66
2021/07/23 08:54:27;;;;;;;;;;;45.20;1.00;;;;;;4993644;28;19957;-65
2021/07/23 08:56:53;;;;;;;;;;;45.70;1.00;;;;;;4993284;28;20008;-66
2021/07/23 08:59:18;;;;;;;;;;;45.50;1.00;;;;;;4992616;28;19917;-66
2021/07/23 09:02:00;;;;;;;;;;;45.90;1.00;;;;;;4993485;28;20459;-66
2021/07/23 09:04:27;;;;;;;;;;;47.30;1.00;;;;;;4993399;28;19910;-66
2021/07/23 09:07:11;;;;;;;;;;;47.80;1.00;;;;;;4993154;28;20275;-66
2021/07/23 09:09:36;;;;;;;;;;;47.00;1.00;;;;;;4992720;28;19925;-66
2021/07/23 09:12:02;;;;;;;;;;;47.10;1.00;;;;;;4993694;28;19918;-65
2021/07/23 09:14:28;;;;;;;;;;;47.10;1.00;;;;;;4992910;28;19909;-65
2021/07/23 09:16:54;;;;;;;;;;;46.50;1.00;;;;;;4993276;28;19910;-65
2021/07/23 09:19:20;;;;;;;;;;;45.40;1.00;;;;;;4992221;28;19910;-66
2021/07/23 09:21:46;;;;;;;;;;;45.20;1.00;;;;;;4993468;28;19909;-66
2021/07/23 09:24:12;;;;;;;;;;;45.90;13.90;;;;;;4993235;28;19933;-66
2021/07/23 09:26:38;;;;;;;;;;;;;;;;;;4993074;28;20378;-65
2021/07/23 09:29:03;;;;;;;;;;;47.00;58.30;;;;;;4991699;28;19917;-65
2021/07/23 09:31:31;;;;;;;;;;;47.00;1.00;;;;;;4992984;28;19918;-65
2021/07/23 09:33:59;;;;;;;;;;;45.90;1.00;;;;;;4992922;28;20298;-65
2021/07/23 09:36:25;;;;;;;;;;;46.30;1.00;;;;;;4992892;28;20009;-65
2021/07/23 09:38:59;;;;;;;;;;;47.20;1.00;;;;;;4992372;28;20398;-66
2021/07/23 09:41:25;;;;;;;;;;;48.30;1.00;;;;;;4992454;28;19914;-65
2021/07/23 09:44:01;;;;;;;;;;;48.50;1.00;;;;;;4992180;28;20252;-66
2021/07/23 09:46:28;;;;;;;;;;;47.80;1.00;;;;;;4992185;28;19910;-65
2021/07/23 09:48:55;;;;;;;;;;;47.10;1.00;;;;;;4992151;28;19910;-66
2021/07/23 09:51:21;;;;;;;;;;;46.70;1.00;;;;;;4992280;28;19976;-65
2021/07/23 09:53:47;;;;;;;;;;;47.20;1.00;;;;;;4992466;28;20431;-65
2021/07/23 09:56:13;;;;;;;;;;;46.70;1.00;;;;;;4992379;28;20044;-66
2021/07/23 09:58:44;;;;;;;;;;;46.40;1.00;;;;;;4991315;28;19921;-65
2021/07/23 10:01:20;;;;;;;;;;;45.40;1.00;;;;;;4992489;28;19913;-65
2021/07/23 10:03:47;;;;;;;;;;;44.40;1.00;;;;;;4992070;28;20364;-66
2021/07/23 10:06:22;;;;;;;;;;;44.30;1.00;;;;;;4991993;28;19910;-66
2021/07/23 10:08:49;;;;;;;;;;;45.00;1.00;;;;;;4991577;28;19920;-66
2021/07/23 10:11:18;;;;;;;;;;;45.50;1.00;;;;;;4991838;28;20403;-66
2021/07/23 10:13:45;;;;;;;;;;;45.00;1.00;;;;;;4991560;28;19913;-66
2021/07/23 10:16:11;;;;;;;;;;;45.30;1.00;;;;;;4992464;28;20311;-65
2021/07/23 10:18:38;;;;;;;;;;;45.60;1.00;;;;;;4991335;28;19913;-66
2021/07/23 10:21:04;;;;;;;;;;;45.00;1.00;;;;;;4992532;28;19916;-65
2021/07/23 10:23:31;;;;;;;;;;;45.40;1.00;;;;;;4990320;28;20360;-66
2021/07/23 10:25:57;;;;;;;;;;;46.50;1.00;;;;;;5006059;23;19957;-65
2021/07/23 10:28:43;;;;;;;;;;;48.00;99.90;;;;;;4991188;28;19913;-66
2021/07/23 10:31:17;;;;;;;;;;;47.70;99.90;;;;;;4984456;28;19914;-66
2021/07/23 10:33:53;;;;;;;;;;;46.00;99.90;;;;;;4991304;28;20032;-66
2021/07/23 10:36:27;;;;;;;;;;;45.00;99.90;;;;;;4991974;28;20225;-66
2021/07/23 10:39:04;;;;;;;;;;;44.40;99.90;;;;;;4991137;28;19914;-65
2021/07/23 10:41:36;;;;;;;;;;;44.20;99.90;;;;;;4991364;28;20004;-66
2021/07/23 10:44:03;;;;;;;;;;;45.10;99.90;;;;;;4990975;28;19914;-65
2021/07/23 10:46:43;;;;;;;;;;;44.30;99.90;;;;;;4991425;28;19909;-65
2021/07/23 10:49:38;;;;;;;;;;;43.00;99.90;;;;;;4990494;28;19910;-65
2021/07/23 10:52:04;;;;;;;;;;;43.10;99.90;;;;;;4976627;28;19962;-65
2021/07/23 10:54:34;;;;;;;;;;;43.70;99.90;;;;;;4990652;28;20230;-68
2021/07/23 10:59:40;;;;;;;;;;;42.70;99.90;;;;;;4989840;28;19914;-66
2021/07/23 11:02:06;;;;;;;;;;;42.90;99.90;;;;;;4991247;28;19953;-66
2021/07/23 11:04:33;;;;;;;;;;;42.70;99.90;;;;;;4991060;28;20319;-66
2021/07/23 11:07:00;;;;;;;;;;;43.20;99.90;;;;;;4991034;28;19914;-65
2021/07/23 11:09:26;;;;;;;;;;;42.00;99.90;;;;;;4990285;28;20000;-66
2021/07/23 11:11:52;;;;;;;;;;;41.90;99.90;;;;;;4990631;28;20001;-66
2021/07/23 11:14:18;;;;;;;;;;;42.30;99.90;;;;;;4990696;28;20000;-65
2021/07/23 11:16:45;;;;;;;;;;;43.20;99.90;;;;;;4991105;28;20008;-66
2021/07/23 11:19:17;;;;;;;;;;;43.30;99.90;;;;;;4990547;28;19909;-65
2021/07/23 11:21:43;;;;;;;;;;;43.50;99.90;;;;;;4989821;28;19957;-66
2021/07/23 11:24:09;;;;;;;;;;;43.50;99.90;;;;;;4990639;28;19956;-66
2021/07/23 11:26:36;;;;;;;;;;;43.90;99.90;;;;;;4990926;28;19957;-65
2021/07/23 11:29:01;;;;;;;;;;;43.30;99.90;;;;;;4990022;28;20375;-65
2021/07/23 11:31:32;;;;;;;;;;;42.60;99.90;;;;;;4991175;28;19940;-65
2021/07/23 11:34:20;;;;;;;;;;;41.70;99.90;;;;;;4991020;28;19910;-65
2021/07/23 11:36:45;;;;;;;;;;;41.50;99.90;;;;;;4990392;28;20259;-65
2021/07/23 11:39:11;;;;;;;;;;;41.20;99.90;;;;;;4990178;28;19964;-65
2021/07/23 11:41:36;;;;;;;;;;;41.00;99.90;;;;;;4990874;28;19965;-65
2021/07/23 11:44:09;;;;;;;;;;;41.10;99.90;;;;;;4990085;28;19914;-68
2021/07/23 11:46:38;;;;;;;;;;;40.90;99.90;;;;;;4990486;28;19917;-67
2021/07/23 11:49:04;;;;;;;;;;;40.30;99.90;;;;;;4990072;28;19952;-67
2021/07/23 11:51:40;;;;;;;;;;;38.80;99.90;;;;;;4990844;28;20267;-65
2021/07/23 11:54:06;;;;;;;;;;;38.40;99.90;;;;;;4990701;28;19914;-67
2021/07/23 11:56:33;;;;;;;;;;;37.20;99.90;;;;;;4990755;28;19957;-66
2021/07/23 11:58:59;;;;;;;;;;;36.60;99.90;;;;;;4989939;28;19920;-67
2021/07/23 12:01:26;;;;;;;;;;;36.20;99.90;;;;;;4991029;28;20367;-67
2021/07/23 12:03:57;;;;;;;;;;;36.60;99.90;;;;;;4990672;28;20004;-65
2021/07/23 12:06:36;;;;;;;;;;;37.20;99.90;;;;;;4990577;28;19980;-67
2021/07/23 12:09:04;;;;;;;;;;;37.70;99.90;;;;;;4991976;28;19942;-67
2021/07/23 12:11:30;;;;;;;;;;;37.90;99.90;;;;;;4994443;28;19914;-66
2021/07/23 12:13:56;;;;;;;;;;;38.20;99.90;;;;;;4993868;28;19964;-67
2021/07/23 12:16:22;;;;;;;;;;;38.00;99.90;;;;;;4994050;28;20283;-67
2021/07/23 12:18:57;;;;;;;;;;;37.80;99.90;;;;;;4993452;28;19964;-67
2021/07/23 12:21:24;;;;;;;;;;;37.50;99.90;;;;;;4994381;28;19965;-66
2021/07/23 12:23:56;;;;;;;;;;;36.90;99.90;;;;;;4992488;28;19917;-67
2021/07/23 12:26:25;;;;;;;;;;;36.30;99.90;;;;;;4993602;28;19929;-67
2021/07/23 12:28:55;;;;;;;;;;;35.80;99.90;;;;;;4993069;28;19915;-66
2021/07/23 12:31:20;;;;;;;;;;;35.20;99.90;;;;;;4994158;28;19924;-67
2021/07/23 12:33:59;;;;;;;;;;;34.70;99.90;;;;;;4994035;28;20374;-67
2021/07/23 12:36:24;;;;;;;;;;;34.20;99.90;;;;;;4994166;28;20001;-67
2021/07/23 12:39:00;;;;;;;;;;;33.80;99.90;;;;;;4993298;28;19964;-67
2021/07/23 12:41:25;;;;;;;;;;;33.50;99.90;;;;;;4993676;28;19914;-66
2021/07/23 12:44:10;;;;;;;;;;;33.50;99.90;;;;;;4993980;28;19921;-66
2021/07/23 12:46:37;;;;;;;;;;;33.30;99.90;;;;;;4993667;28;19910;-66
2021/07/23 12:49:18;;;;;;;;;;;33.20;99.90;;;;;;4993025;28;19910;-67
2021/07/23 12:51:45;;;;;;;;;;;33.10;99.90;;;;;;4993298;28;19958;-67
2021/07/23 12:54:11;;;;;;;;;;;33.00;99.90;;;;;;4992187;28;20382;-67
2021/07/23 12:56:37;;;;;;;;;;;32.80;99.90;;;;;;4993214;28;19916;-67
2021/07/23 12:59:23;;;;;;;;;;;32.80;99.90;;;;;;4992299;28;19916;-67
2021/07/23 13:01:49;;;;;;;;;;;32.80;99.90;;;;;;4993285;28;19909;-67
2021/07/23 13:04:15;;;;;;;;;;;32.60;99.90;;;;;;4993468;28;19910;-66
2021/07/23 13:06:40;;;;;;;;;;;32.50;99.90;;;;;;4993213;28;20274;-66
2021/07/23 13:09:06;;;;;;;;;;;32.40;99.90;;;;;;4992511;28;19909;-66
2021/07/23 13:11:33;;;;;;;;;;;31.80;99.90;;;;;;4993467;28;20255;-67
2021/07/23 13:13:59;;;;;;;;;;;31.60;99.90;;;;;;4992539;28;19962;-67
2021/07/23 13:16:24;;;;;;;;;;;31.40;99.90;;;;;;4993151;28;20413;-67
2021/07/23 13:18:49;;;;;;;;;;;31.00;99.90;;;;;;4991973;28;19909;-66
2021/07/23 13:21:17;;;;;;;;;;;29.80;99.90;;;;;;4992128;28;20340;-67
2021/07/23 13:23:43;;;;;;;;;;;29.70;1.60;;;;;;4991506;28;19921;-67
2021/07/23 13:26:08;;;;;;;;;;;29.70;1.00;;;;;;4992933;28;19936;-67
2021/07/23 13:28:34;;;;;;;;;;;29.70;2.30;;;;;;4991878;28;19933;-67
2021/07/23 13:31:02;;;;;;;;;;;29.80;6.90;;;;;;4992774;28;19918;-66
2021/07/23 13:33:28;;;;;;;;;;;30.00;5.50;;;;;;4992859;28;19910;-67
2021/07/23 13:35:58;;;;;;;;;;;30.30;2.80;;;;;;4992784;28;20017;-66
2021/07/23 13:38:26;;;;;;;;;;;30.50;3.00;;;;;;4992537;28;20040;-67
2021/07/23 13:40:54;;;;;;;;;;;30.80;1.00;;;;;;4992673;28;19910;-67
2021/07/23 13:43:19;;;;;;;;;;;30.80;1.00;;;;;;4992652;28;19964;-67
2021/07/23 13:45:45;;;;;;;;;;;30.80;5.60;;;;;;4992124;28;19953;-66
2021/07/23 13:48:10;;;;;;;;;;;30.60;3.30;;;;;;4992128;28;20005;-66
2021/07/23 13:50:36;;;;;;;;;;;30.50;4.70;;;;;;4992656;28;19910;-67
2021/07/23 13:53:02;;;;;;;;;;;30.40;9.80;;;;;;4992509;28;19909;-67
2021/07/23 13:55:27;;;;;;;;;;;30.50;10.40;;;;;;4992371;28;19948;-66
2021/07/23 13:57:53;;;;;;;;;;;30.40;13.50;;;;;;4992110;28;20300;-66
2021/07/23 14:00:18;;;;;;;;;;;30.20;15.70;;;;;;4991909;28;19953;-66
2021/07/23 14:02:44;;;;;;;;;;;30.10;15.80;;;;;;4992301;28;20263;-66
2021/07/23 14:05:10;;;;;;;;;;;30.10;22.20;;;;;;4992076;28;19958;-66
2021/07/23 14:07:36;;;;;;;;;;;30.00;23.50;;;;;;4991766;28;20339;-66
2021/07/23 14:10:04;;;;;;;;;;;30.00;28.50;;;;;;4991556;28;20378;-67
2021/07/23 14:12:30;;;;;;;;;;;30.20;40.30;;;;;;4992196;28;20276;-67
2021/07/23 14:14:56;;;;;;;;;;;30.30;46.80;;;;;;4991469;28;19924;-66
2021/07/23 14:17:21;;;;;;;;;;;30.50;51.80;;;;;;4991522;28;19914;-66
2021/07/23 14:19:47;;;;;;;;;;;30.60;63.00;;;;;;4991932;28;19932;-67
2021/07/23 14:22:12;;;;;;;;;;;30.60;90.70;;;;;;4992055;28;19943;-67
2021/07/23 14:24:38;;;;;;;;;;;30.70;77.80;;;;;;4991933;28;20001;-67